Dutch Harbor, Alaska
Current Conditions -  °F | °C
As of 2:32 AM on Tuesday 21 Oct 2014 (Local Time) from PADU Reporting Station
Overcast Overcast  
Wind Chill: 30°   Ceiling: 4000
Heat Index: 41°   Visibility: 10mi
Dew Point: 28°   Wind: 26mph
Humidity: 61%   Direction: 300°WNW
Pressure: 29.55"   Gusts: 37mph
Location:  53.51°N, 167.06°W
Report Text: PADU 211032Z AUTO 30023G32KT 10SM FEW030 OVC040 05/M02 A2955 RMK AO2 PK WND 30032/1025 RAE01B17E30 PNO $
Loading
Personal Weather Stations






























Interactive Weather Map
Tropical Storm Tracking
New forecast layout! Learn more

10-Day Weather Forecast

Advertisements
Track Severe Weather on mobile